sensor_id;sensor_type;location;lat;lon;timestamp;P1;durP1;ratioP1;P2;durP2;ratioP2
61038;SDS011;46919;45.816;3.104;2023-07-16T00:00:06;5.60;;;2.05;;
61038;SDS011;46919;45.816;3.104;2023-07-16T00:02:33;4.57;;;2.20;;
61038;SDS011;46919;45.816;3.104;2023-07-16T00:04:59;3.88;;;1.98;;
61038;SDS011;46919;45.816;3.104;2023-07-16T00:07:24;7.90;;;4.57;;
61038;SDS011;46919;45.816;3.104;2023-07-16T00:09:50;5.15;;;2.40;;
61038;SDS011;46919;45.816;3.104;2023-07-16T00:12:15;3.30;;;1.48;;
61038;SDS011;46919;45.816;3.104;2023-07-16T00:14:40;3.65;;;1.50;;
61038;SDS011;46919;45.816;3.104;2023-07-16T00:17:06;5.40;;;1.50;;
61038;SDS011;46919;45.816;3.104;2023-07-16T00:19:31;6.25;;;1.70;;
61038;SDS011;46919;45.816;3.104;2023-07-16T00:21:57;4.38;;;2.22;;
61038;SDS011;46919;45.816;3.104;2023-07-16T00:24:22;3.17;;;1.63;;
61038;SDS011;46919;45.816;3.104;2023-07-16T00:26:47;5.57;;;1.42;;
61038;SDS011;46919;45.816;3.104;2023-07-16T00:29:13;10.05;;;2.03;;
61038;SDS011;46919;45.816;3.104;2023-07-16T00:31:38;6.13;;;1.90;;
61038;SDS011;46919;45.816;3.104;2023-07-16T00:34:03;5.82;;;2.00;;
61038;SDS011;46919;45.816;3.104;2023-07-16T00:36:29;3.67;;;2.50;;
61038;SDS011;46919;45.816;3.104;2023-07-16T00:38:54;6.80;;;2.72;;
61038;SDS011;46919;45.816;3.104;2023-07-16T00:41:19;4.13;;;2.30;;
61038;SDS011;46919;45.816;3.104;2023-07-16T00:43:45;5.63;;;2.42;;
61038;SDS011;46919;45.816;3.104;2023-07-16T00:46:10;18.08;;;11.85;;
61038;SDS011;46919;45.816;3.104;2023-07-16T00:48:37;15.70;;;10.77;;
61038;SDS011;46919;45.816;3.104;2023-07-16T00:51:02;9.18;;;4.70;;
61038;SDS011;46919;45.816;3.104;2023-07-16T00:53:29;3.47;;;1.98;;
61038;SDS011;46919;45.816;3.104;2023-07-16T00:55:55;4.70;;;2.00;;
61038;SDS011;46919;45.816;3.104;2023-07-16T00:58:20;7.60;;;2.92;;
61038;SDS011;46919;45.816;3.104;2023-07-16T01:00:46;4.15;;;1.80;;
61038;SDS011;46919;45.816;3.104;2023-07-16T01:03:12;5.13;;;1.90;;
61038;SDS011;46919;45.816;3.104;2023-07-16T01:06:00;4.03;;;1.48;;
61038;SDS011;46919;45.816;3.104;2023-07-16T01:08:42;3.80;;;1.55;;
61038;SDS011;46919;45.816;3.104;2023-07-16T01:11:11;4.63;;;1.33;;
61038;SDS011;46919;45.816;3.104;2023-07-16T01:13:37;4.00;;;1.75;;
61038;SDS011;46919;45.816;3.104;2023-07-16T01:16:04;4.05;;;1.27;;
61038;SDS011;46919;45.816;3.104;2023-07-16T01:18:30;5.47;;;1.70;;
61038;SDS011;46919;45.816;3.104;2023-07-16T01:20:55;6.40;;;1.50;;
61038;SDS011;46919;45.816;3.104;2023-07-16T01:31:10;4.45;;;1.20;;
61038;SDS011;46919;45.816;3.104;2023-07-16T01:33:36;2.75;;;1.42;;
61038;SDS011;46919;45.816;3.104;2023-07-16T01:36:03;4.35;;;1.80;;
61038;SDS011;46919;45.816;3.104;2023-07-16T01:38:30;4.60;;;1.63;;
61038;SDS011;46919;45.816;3.104;2023-07-16T01:40:55;5.82;;;1.40;;
61038;SDS011;46919;45.816;3.104;2023-07-16T01:43:21;2.95;;;1.50;;
61038;SDS011;46919;45.816;3.104;2023-07-16T01:45:46;4.28;;;1.40;;
61038;SDS011;46919;45.816;3.104;2023-07-16T01:48:14;4.07;;;1.35;;
61038;SDS011;46919;45.816;3.104;2023-07-16T01:50:49;4.05;;;1.45;;
61038;SDS011;46919;45.816;3.104;2023-07-16T01:53:14;5.40;;;1.55;;
61038;SDS011;46919;45.816;3.104;2023-07-16T01:55:40;5.90;;;3.50;;
61038;SDS011;46919;45.816;3.104;2023-07-16T01:58:05;9.88;;;6.80;;
61038;SDS011;46919;45.816;3.104;2023-07-16T02:00:31;10.25;;;7.05;;
61038;SDS011;46919;45.816;3.104;2023-07-16T02:02:56;9.85;;;6.53;;
61038;SDS011;46919;45.816;3.104;2023-07-16T02:05:22;11.10;;;6.45;;
61038;SDS011;46919;45.816;3.104;2023-07-16T02:07:47;9.15;;;4.80;;
61038;SDS011;46919;45.816;3.104;2023-07-16T02:10:12;8.70;;;5.20;;
61038;SDS011;46919;45.816;3.104;2023-07-16T02:12:38;3.42;;;2.25;;
61038;SDS011;46919;45.816;3.104;2023-07-16T02:15:03;6.20;;;2.55;;
61038;SDS011;46919;45.816;3.104;2023-07-16T02:17:29;6.10;;;2.65;;
61038;SDS011;46919;45.816;3.104;2023-07-16T02:19:54;4.63;;;2.25;;
61038;SDS011;46919;45.816;3.104;2023-07-16T02:22:20;6.80;;;1.88;;
61038;SDS011;46919;45.816;3.104;2023-07-16T02:24:45;4.55;;;1.73;;
61038;SDS011;46919;45.816;3.104;2023-07-16T02:27:10;5.22;;;2.05;;
61038;SDS011;46919;45.816;3.104;2023-07-16T02:29:36;6.35;;;1.85;;
61038;SDS011;46919;45.816;3.104;2023-07-16T02:32:01;4.50;;;1.75;;
61038;SDS011;46919;45.816;3.104;2023-07-16T02:34:27;3.70;;;1.52;;
61038;SDS011;46919;45.816;3.104;2023-07-16T02:36:52;3.72;;;1.60;;
61038;SDS011;46919;45.816;3.104;2023-07-16T02:39:17;5.28;;;1.50;;
61038;SDS011;46919;45.816;3.104;2023-07-16T02:41:43;4.95;;;1.65;;
61038;SDS011;46919;45.816;3.104;2023-07-16T02:44:08;6.05;;;1.70;;
61038;SDS011;46919;45.816;3.104;2023-07-16T02:46:34;5.47;;;2.03;;
61038;SDS011;46919;45.816;3.104;2023-07-16T02:49:00;5.55;;;2.03;;
61038;SDS011;46919;45.816;3.104;2023-07-16T02:51:25;3.67;;;2.05;;
61038;SDS011;46919;45.816;3.104;2023-07-16T02:53:50;6.40;;;2.45;;
61038;SDS011;46919;45.816;3.104;2023-07-16T02:56:16;5.47;;;2.17;;
61038;SDS011;46919;45.816;3.104;2023-07-16T02:58:41;3.38;;;1.70;;
61038;SDS011;46919;45.816;3.104;2023-07-16T03:01:07;5.70;;;1.92;;
61038;SDS011;46919;45.816;3.104;2023-07-16T03:03:32;8.23;;;2.20;;
61038;SDS011;46919;45.816;3.104;2023-07-16T03:05:58;6.07;;;1.92;;
61038;SDS011;46919;45.816;3.104;2023-07-16T03:08:23;6.22;;;1.92;;
61038;SDS011;46919;45.816;3.104;2023-07-16T03:10:51;5.03;;;2.17;;
61038;SDS011;46919;45.816;3.104;2023-07-16T03:13:16;4.45;;;1.67;;
61038;SDS011;46919;45.816;3.104;2023-07-16T03:15:42;4.35;;;1.60;;
61038;SDS011;46919;45.816;3.104;2023-07-16T03:18:07;3.28;;;1.90;;
61038;SDS011;46919;45.816;3.104;2023-07-16T03:20:33;4.85;;;1.90;;
61038;SDS011;46919;45.816;3.104;2023-07-16T03:22:58;4.72;;;1.58;;
61038;SDS011;46919;45.816;3.104;2023-07-16T03:25:23;6.30;;;1.80;;
61038;SDS011;46919;45.816;3.104;2023-07-16T03:27:49;6.50;;;1.70;;
61038;SDS011;46919;45.816;3.104;2023-07-16T03:30:14;5.38;;;1.80;;
61038;SDS011;46919;45.816;3.104;2023-07-16T03:32:39;7.57;;;1.95;;
61038;SDS011;46919;45.816;3.104;2023-07-16T03:35:05;5.63;;;1.83;;
61038;SDS011;46919;45.816;3.104;2023-07-16T03:37:30;3.17;;;1.52;;
61038;SDS011;46919;45.816;3.104;2023-07-16T03:39:56;4.57;;;2.17;;
61038;SDS011;46919;45.816;3.104;2023-07-16T03:42:21;6.00;;;2.08;;
61038;SDS011;46919;45.816;3.104;2023-07-16T03:44:47;3.97;;;1.60;;
61038;SDS011;46919;45.816;3.104;2023-07-16T03:47:12;4.82;;;1.27;;
61038;SDS011;46919;45.816;3.104;2023-07-16T03:49:38;7.75;;;1.98;;
61038;SDS011;46919;45.816;3.104;2023-07-16T03:52:03;4.20;;;1.85;;
61038;SDS011;46919;45.816;3.104;2023-07-16T03:54:29;4.97;;;1.58;;
61038;SDS011;46919;45.816;3.104;2023-07-16T03:56:54;3.67;;;1.55;;
61038;SDS011;46919;45.816;3.104;2023-07-16T03:59:20;5.32;;;2.03;;
61038;SDS011;46919;45.816;3.104;2023-07-16T04:01:45;7.20;;;2.25;;
61038;SDS011;46919;45.816;3.104;2023-07-16T04:04:11;6.22;;;1.83;;
61038;SDS011;46919;45.816;3.104;2023-07-16T04:06:36;4.13;;;2.00;;
61038;SDS011;46919;45.816;3.104;2023-07-16T04:09:01;4.00;;;2.22;;
61038;SDS011;46919;45.816;3.104;2023-07-16T04:11:27;4.40;;;1.75;;
61038;SDS011;46919;45.816;3.104;2023-07-16T04:13:52;3.90;;;1.73;;
61038;SDS011;46919;45.816;3.104;2023-07-16T04:16:18;8.98;;;1.80;;
61038;SDS011;46919;45.816;3.104;2023-07-16T04:18:43;6.60;;;2.20;;
61038;SDS011;46919;45.816;3.104;2023-07-16T04:21:09;5.88;;;1.92;;
61038;SDS011;46919;45.816;3.104;2023-07-16T04:23:34;3.55;;;1.77;;
61038;SDS011;46919;45.816;3.104;2023-07-16T04:26:00;7.90;;;1.95;;
61038;SDS011;46919;45.816;3.104;2023-07-16T04:28:25;5.63;;;1.77;;
61038;SDS011;46919;45.816;3.104;2023-07-16T04:30:51;5.55;;;1.80;;
61038;SDS011;46919;45.816;3.104;2023-07-16T04:33:16;4.20;;;1.85;;
61038;SDS011;46919;45.816;3.104;2023-07-16T04:35:43;4.80;;;1.90;;
61038;SDS011;46919;45.816;3.104;2023-07-16T04:38:09;5.78;;;2.00;;
61038;SDS011;46919;45.816;3.104;2023-07-16T04:40:34;5.60;;;1.88;;
61038;SDS011;46919;45.816;3.104;2023-07-16T04:42:59;6.70;;;1.95;;
61038;SDS011;46919;45.816;3.104;2023-07-16T04:45:25;5.20;;;2.20;;
61038;SDS011;46919;45.816;3.104;2023-07-16T04:47:50;4.50;;;1.90;;
61038;SDS011;46919;45.816;3.104;2023-07-16T04:50:15;6.10;;;2.08;;
61038;SDS011;46919;45.816;3.104;2023-07-16T04:52:41;8.40;;;1.75;;
61038;SDS011;46919;45.816;3.104;2023-07-16T04:55:06;5.43;;;1.70;;
61038;SDS011;46919;45.816;3.104;2023-07-16T04:57:32;4.82;;;1.80;;
61038;SDS011;46919;45.816;3.104;2023-07-16T04:59:58;6.93;;;1.83;;
61038;SDS011;46919;45.816;3.104;2023-07-16T05:02:24;4.93;;;2.05;;
61038;SDS011;46919;45.816;3.104;2023-07-16T05:04:49;3.25;;;1.80;;
61038;SDS011;46919;45.816;3.104;2023-07-16T05:07:15;8.80;;;2.00;;
61038;SDS011;46919;45.816;3.104;2023-07-16T05:09:40;6.15;;;2.47;;
61038;SDS011;46919;45.816;3.104;2023-07-16T05:12:06;5.63;;;2.47;;
61038;SDS011;46919;45.816;3.104;2023-07-16T05:14:42;8.48;;;2.58;;
61038;SDS011;46919;45.816;3.104;2023-07-16T05:17:11;5.65;;;2.50;;
61038;SDS011;46919;45.816;3.104;2023-07-16T05:19:37;4.80;;;2.50;;
61038;SDS011;46919;45.816;3.104;2023-07-16T05:22:03;9.48;;;2.55;;
61038;SDS011;46919;45.816;3.104;2023-07-16T05:24:28;6.68;;;2.20;;
61038;SDS011;46919;45.816;3.104;2023-07-16T05:26:54;4.38;;;1.92;;
61038;SDS011;46919;45.816;3.104;2023-07-16T05:29:19;4.75;;;2.08;;
61038;SDS011;46919;45.816;3.104;2023-07-16T05:31:45;5.65;;;2.08;;
61038;SDS011;46919;45.816;3.104;2023-07-16T05:34:11;5.47;;;1.95;;
61038;SDS011;46919;45.816;3.104;2023-07-16T05:36:37;4.90;;;2.30;;
61038;SDS011;46919;45.816;3.104;2023-07-16T05:39:02;4.95;;;2.28;;
61038;SDS011;46919;45.816;3.104;2023-07-16T05:41:28;5.57;;;2.10;;
61038;SDS011;46919;45.816;3.104;2023-07-16T05:43:53;5.88;;;2.25;;
61038;SDS011;46919;45.816;3.104;2023-07-16T05:46:18;4.70;;;1.95;;
61038;SDS011;46919;45.816;3.104;2023-07-16T05:48:44;7.03;;;2.25;;
61038;SDS011;46919;45.816;3.104;2023-07-16T05:51:09;6.35;;;1.88;;
61038;SDS011;46919;45.816;3.104;2023-07-16T05:53:34;7.68;;;2.38;;
61038;SDS011;46919;45.816;3.104;2023-07-16T05:56:00;5.88;;;2.20;;
61038;SDS011;46919;45.816;3.104;2023-07-16T05:58:25;6.70;;;2.10;;
61038;SDS011;46919;45.816;3.104;2023-07-16T06:00:50;4.40;;;1.65;;
61038;SDS011;46919;45.816;3.104;2023-07-16T06:03:16;6.18;;;1.90;;
61038;SDS011;46919;45.816;3.104;2023-07-16T06:05:42;6.93;;;2.58;;
61038;SDS011;46919;45.816;3.104;2023-07-16T06:08:07;6.30;;;2.00;;
61038;SDS011;46919;45.816;3.104;2023-07-16T06:10:33;6.57;;;2.30;;
61038;SDS011;46919;45.816;3.104;2023-07-16T06:13:00;8.25;;;2.13;;
61038;SDS011;46919;45.816;3.104;2023-07-16T06:15:25;4.72;;;2.10;;
61038;SDS011;46919;45.816;3.104;2023-07-16T06:17:50;6.05;;;1.70;;
61038;SDS011;46919;45.816;3.104;2023-07-16T06:20:17;6.50;;;2.13;;
61038;SDS011;46919;45.816;3.104;2023-07-16T06:22:42;5.85;;;2.08;;
61038;SDS011;46919;45.816;3.104;2023-07-16T06:25:08;5.55;;;2.00;;
61038;SDS011;46919;45.816;3.104;2023-07-16T06:27:35;3.45;;;1.75;;
61038;SDS011;46919;45.816;3.104;2023-07-16T06:30:01;8.15;;;1.92;;
61038;SDS011;46919;45.816;3.104;2023-07-16T06:32:26;5.25;;;1.90;;
61038;SDS011;46919;45.816;3.104;2023-07-16T06:34:52;5.50;;;1.83;;
61038;SDS011;46919;45.816;3.104;2023-07-16T06:37:17;5.50;;;1.90;;
61038;SDS011;46919;45.816;3.104;2023-07-16T06:39:43;5.15;;;1.90;;
61038;SDS011;46919;45.816;3.104;2023-07-16T06:42:08;6.38;;;1.90;;
61038;SDS011;46919;45.816;3.104;2023-07-16T06:44:33;5.45;;;1.70;;
61038;SDS011;46919;45.816;3.104;2023-07-16T06:46:59;4.00;;;1.85;;
61038;SDS011;46919;45.816;3.104;2023-07-16T06:49:24;7.20;;;2.28;;
61038;SDS011;46919;45.816;3.104;2023-07-16T06:51:50;6.00;;;2.13;;
61038;SDS011;46919;45.816;3.104;2023-07-16T06:54:15;7.28;;;2.08;;
61038;SDS011;46919;45.816;3.104;2023-07-16T06:56:41;5.40;;;1.90;;
61038;SDS011;46919;45.816;3.104;2023-07-16T06:59:06;4.63;;;2.13;;
61038;SDS011;46919;45.816;3.104;2023-07-16T07:01:31;4.72;;;2.25;;
61038;SDS011;46919;45.816;3.104;2023-07-16T07:03:57;3.47;;;1.90;;
61038;SDS011;46919;45.816;3.104;2023-07-16T07:06:22;5.13;;;1.75;;
61038;SDS011;46919;45.816;3.104;2023-07-16T07:08:48;6.85;;;2.15;;
61038;SDS011;46919;45.816;3.104;2023-07-16T07:11:13;6.25;;;1.90;;
61038;SDS011;46919;45.816;3.104;2023-07-16T07:13:38;4.15;;;2.13;;
61038;SDS011;46919;45.816;3.104;2023-07-16T07:16:04;5.35;;;2.17;;
61038;SDS011;46919;45.816;3.104;2023-07-16T07:18:29;6.05;;;1.85;;
61038;SDS011;46919;45.816;3.104;2023-07-16T07:20:55;5.68;;;1.80;;
61038;SDS011;46919;45.816;3.104;2023-07-16T07:23:21;3.88;;;1.92;;
61038;SDS011;46919;45.816;3.104;2023-07-16T07:25:49;7.53;;;2.00;;
61038;SDS011;46919;45.816;3.104;2023-07-16T07:28:16;5.47;;;2.03;;
61038;SDS011;46919;45.816;3.104;2023-07-16T07:30:42;5.13;;;2.35;;
61038;SDS011;46919;45.816;3.104;2023-07-16T07:33:07;7.15;;;1.85;;
61038;SDS011;46919;45.816;3.104;2023-07-16T07:35:33;6.00;;;1.95;;
61038;SDS011;46919;45.816;3.104;2023-07-16T07:37:58;4.30;;;2.08;;
61038;SDS011;46919;45.816;3.104;2023-07-16T07:40:23;5.88;;;2.42;;
61038;SDS011;46919;45.816;3.104;2023-07-16T07:42:49;6.72;;;2.45;;
61038;SDS011;46919;45.816;3.104;2023-07-16T07:45:15;4.25;;;2.20;;
61038;SDS011;46919;45.816;3.104;2023-07-16T07:47:41;8.30;;;2.50;;
61038;SDS011;46919;45.816;3.104;2023-07-16T07:50:06;5.90;;;2.33;;
61038;SDS011;46919;45.816;3.104;2023-07-16T07:52:32;6.43;;;2.67;;
61038;SDS011;46919;45.816;3.104;2023-07-16T07:54:57;7.72;;;2.33;;
61038;SDS011;46919;45.816;3.104;2023-07-16T07:57:23;6.75;;;2.45;;
61038;SDS011;46919;45.816;3.104;2023-07-16T07:59:48;6.40;;;2.40;;
61038;SDS011;46919;45.816;3.104;2023-07-16T08:02:16;5.10;;;2.20;;
61038;SDS011;46919;45.816;3.104;2023-07-16T08:04:43;4.93;;;2.50;;
61038;SDS011;46919;45.816;3.104;2023-07-16T08:07:09;5.80;;;2.05;;
61038;SDS011;46919;45.816;3.104;2023-07-16T08:09:34;4.68;;;2.38;;
61038;SDS011;46919;45.816;3.104;2023-07-16T08:11:59;7.10;;;2.42;;
61038;SDS011;46919;45.816;3.104;2023-07-16T08:14:25;6.72;;;2.17;;
61038;SDS011;46919;45.816;3.104;2023-07-16T08:16:50;5.57;;;2.42;;
61038;SDS011;46919;45.816;3.104;2023-07-16T08:19:15;6.10;;;2.38;;
61038;SDS011;46919;45.816;3.104;2023-07-16T08:21:41;4.78;;;2.45;;
61038;SDS011;46919;45.816;3.104;2023-07-16T08:24:06;6.15;;;2.33;;
61038;SDS011;46919;45.816;3.104;2023-07-16T08:26:32;7.25;;;2.50;;
61038;SDS011;46919;45.816;3.104;2023-07-16T08:28:57;3.55;;;2.15;;
61038;SDS011;46919;45.816;3.104;2023-07-16T08:31:24;7.22;;;1.98;;
61038;SDS011;46919;45.816;3.104;2023-07-16T08:33:49;6.68;;;2.72;;
61038;SDS011;46919;45.816;3.104;2023-07-16T08:36:15;5.03;;;2.30;;
61038;SDS011;46919;45.816;3.104;2023-07-16T08:38:40;8.48;;;2.33;;
61038;SDS011;46919;45.816;3.104;2023-07-16T08:41:05;6.53;;;2.70;;
61038;SDS011;46919;45.816;3.104;2023-07-16T08:43:31;9.95;;;2.80;;
61038;SDS011;46919;45.816;3.104;2023-07-16T08:45:58;4.75;;;2.28;;
61038;SDS011;46919;45.816;3.104;2023-07-16T08:48:27;7.50;;;2.78;;
61038;SDS011;46919;45.816;3.104;2023-07-16T08:50:53;6.03;;;2.38;;
61038;SDS011;46919;45.816;3.104;2023-07-16T08:53:22;4.35;;;2.25;;
61038;SDS011;46919;45.816;3.104;2023-07-16T08:55:47;7.32;;;2.13;;
61038;SDS011;46919;45.816;3.104;2023-07-16T08:58:13;7.35;;;2.88;;
61038;SDS011;46919;45.816;3.104;2023-07-16T09:00:42;4.88;;;2.10;;
61038;SDS011;46919;45.816;3.104;2023-07-16T09:03:12;3.63;;;2.20;;
61038;SDS011;46919;45.816;3.104;2023-07-16T09:05:46;7.60;;;2.53;;
61038;SDS011;46919;45.816;3.104;2023-07-16T09:08:12;6.30;;;2.65;;
61038;SDS011;46919;45.816;3.104;2023-07-16T09:10:41;4.40;;;2.30;;
61038;SDS011;46919;45.816;3.104;2023-07-16T09:13:07;4.50;;;2.33;;
61038;SDS011;46919;45.816;3.104;2023-07-16T09:15:33;9.25;;;2.30;;
61038;SDS011;46919;45.816;3.104;2023-07-16T09:18:02;5.38;;;2.42;;
61038;SDS011;46919;45.816;3.104;2023-07-16T09:20:29;4.55;;;2.13;;
61038;SDS011;46919;45.816;3.104;2023-07-16T09:22:56;6.25;;;2.40;;
61038;SDS011;46919;45.816;3.104;2023-07-16T09:25:29;5.35;;;2.15;;
61038;SDS011;46919;45.816;3.104;2023-07-16T09:27:55;5.00;;;2.20;;
61038;SDS011;46919;45.816;3.104;2023-07-16T09:30:22;6.80;;;2.20;;
61038;SDS011;46919;45.816;3.104;2023-07-16T09:32:48;4.93;;;2.38;;
61038;SDS011;46919;45.816;3.104;2023-07-16T09:35:14;6.50;;;2.13;;
61038;SDS011;46919;45.816;3.104;2023-07-16T09:37:41;6.85;;;2.28;;
61038;SDS011;46919;45.816;3.104;2023-07-16T09:40:07;5.53;;;2.03;;
61038;SDS011;46919;45.816;3.104;2023-07-16T09:42:38;4.90;;;2.03;;
61038;SDS011;46919;45.816;3.104;2023-07-16T09:45:07;4.78;;;2.70;;
61038;SDS011;46919;45.816;3.104;2023-07-16T09:47:34;5.70;;;2.08;;
61038;SDS011;46919;45.816;3.104;2023-07-16T09:50:00;2.90;;;1.95;;
61038;SDS011;46919;45.816;3.104;2023-07-16T09:52:26;6.30;;;2.40;;
61038;SDS011;46919;45.816;3.104;2023-07-16T09:54:52;4.10;;;2.03;;
61038;SDS011;46919;45.816;3.104;2023-07-16T09:57:20;3.83;;;2.35;;
61038;SDS011;46919;45.816;3.104;2023-07-16T09:59:50;3.90;;;2.00;;
61038;SDS011;46919;45.816;3.104;2023-07-16T10:02:19;6.13;;;1.83;;
61038;SDS011;46919;45.816;3.104;2023-07-16T10:04:46;3.92;;;2.22;;
61038;SDS011;46919;45.816;3.104;2023-07-16T10:07:21;5.97;;;2.35;;
61038;SDS011;46919;45.816;3.104;2023-07-16T10:12:19;5.47;;;2.47;;
61038;SDS011;46919;45.816;3.104;2023-07-16T10:14:46;4.18;;;2.25;;
61038;SDS011;46919;45.816;3.104;2023-07-16T10:17:25;2.72;;;2.08;;
61038;SDS011;46919;45.816;3.104;2023-07-16T10:22:46;5.55;;;2.60;;
61038;SDS011;46919;45.816;3.104;2023-07-16T10:27:43;5.05;;;2.15;;
61038;SDS011;46919;45.816;3.104;2023-07-16T10:30:10;7.80;;;2.58;;
61038;SDS011;46919;45.816;3.104;2023-07-16T10:32:35;5.50;;;2.47;;
61038;SDS011;46919;45.816;3.104;2023-07-16T10:35:01;6.20;;;1.90;;
61038;SDS011;46919;45.816;3.104;2023-07-16T10:37:30;5.47;;;2.30;;
61038;SDS011;46919;45.816;3.104;2023-07-16T10:39:56;3.63;;;2.10;;
61038;SDS011;46919;45.816;3.104;2023-07-16T10:42:23;5.03;;;2.30;;
61038;SDS011;46919;45.816;3.104;2023-07-16T10:44:50;6.75;;;2.40;;
61038;SDS011;46919;45.816;3.104;2023-07-16T10:49:47;4.07;;;2.28;;
61038;SDS011;46919;45.816;3.104;2023-07-16T10:52:12;6.60;;;2.47;;
61038;SDS011;46919;45.816;3.104;2023-07-16T10:54:39;5.82;;;2.35;;
61038;SDS011;46919;45.816;3.104;2023-07-16T10:57:05;5.40;;;2.45;;
61038;SDS011;46919;45.816;3.104;2023-07-16T10:59:30;4.93;;;2.20;;
61038;SDS011;46919;45.816;3.104;2023-07-16T11:01:56;5.05;;;2.65;;
61038;SDS011;46919;45.816;3.104;2023-07-16T11:04:21;5.22;;;2.63;;
61038;SDS011;46919;45.816;3.104;2023-07-16T11:06:49;4.72;;;2.40;;
61038;SDS011;46919;45.816;3.104;2023-07-16T11:09:15;6.95;;;2.50;;
61038;SDS011;46919;45.816;3.104;2023-07-16T11:11:40;6.10;;;2.35;;
61038;SDS011;46919;45.816;3.104;2023-07-16T11:14:06;4.85;;;2.38;;
61038;SDS011;46919;45.816;3.104;2023-07-16T11:16:33;6.68;;;2.47;;
61038;SDS011;46919;45.816;3.104;2023-07-16T11:19:04;5.63;;;2.50;;
61038;SDS011;46919;45.816;3.104;2023-07-16T11:21:30;6.05;;;2.40;;
61038;SDS011;46919;45.816;3.104;2023-07-16T11:24:10;4.18;;;2.40;;
61038;SDS011;46919;45.816;3.104;2023-07-16T11:26:38;5.80;;;2.35;;
61038;SDS011;46919;45.816;3.104;2023-07-16T11:29:13;4.22;;;1.90;;
61038;SDS011;46919;45.816;3.104;2023-07-16T11:31:39;8.00;;;2.15;;
61038;SDS011;46919;45.816;3.104;2023-07-16T11:34:06;5.90;;;2.25;;
61038;SDS011;46919;45.816;3.104;2023-07-16T11:36:32;5.07;;;2.33;;
61038;SDS011;46919;45.816;3.104;2023-07-16T11:38:58;4.38;;;2.47;;
61038;SDS011;46919;45.816;3.104;2023-07-16T11:41:24;5.00;;;2.75;;
61038;SDS011;46919;45.816;3.104;2023-07-16T11:43:49;6.85;;;2.72;;
61038;SDS011;46919;45.816;3.104;2023-07-16T11:46:15;4.60;;;2.30;;
61038;SDS011;46919;45.816;3.104;2023-07-16T11:48:42;5.75;;;2.40;;
61038;SDS011;46919;45.816;3.104;2023-07-16T11:51:08;5.43;;;2.80;;
61038;SDS011;46919;45.816;3.104;2023-07-16T11:53:33;4.85;;;2.28;;
61038;SDS011;46919;45.816;3.104;2023-07-16T11:55:58;5.05;;;2.35;;
61038;SDS011;46919;45.816;3.104;2023-07-16T11:58:24;3.20;;;2.13;;
61038;SDS011;46919;45.816;3.104;2023-07-16T12:00:49;3.92;;;2.15;;
61038;SDS011;46919;45.816;3.104;2023-07-16T12:03:16;5.28;;;2.33;;
61038;SDS011;46919;45.816;3.104;2023-07-16T12:05:41;4.03;;;2.60;;
61038;SDS011;46919;45.816;3.104;2023-07-16T12:08:07;3.65;;;2.25;;
61038;SDS011;46919;45.816;3.104;2023-07-16T12:10:39;4.93;;;2.63;;
61038;SDS011;46919;45.816;3.104;2023-07-16T12:13:05;4.25;;;2.30;;
61038;SDS011;46919;45.816;3.104;2023-07-16T12:15:30;6.15;;;2.28;;
61038;SDS011;46919;45.816;3.104;2023-07-16T12:17:56;6.28;;;2.75;;
61038;SDS011;46919;45.816;3.104;2023-07-16T12:20:21;4.65;;;2.38;;
61038;SDS011;46919;45.816;3.104;2023-07-16T12:22:46;4.32;;;2.22;;
61038;SDS011;46919;45.816;3.104;2023-07-16T12:25:12;3.95;;;2.40;;
61038;SDS011;46919;45.816;3.104;2023-07-16T12:27:37;5.07;;;2.15;;
61038;SDS011;46919;45.816;3.104;2023-07-16T12:30:02;4.40;;;2.22;;
61038;SDS011;46919;45.816;3.104;2023-07-16T12:32:28;3.42;;;2.28;;
61038;SDS011;46919;45.816;3.104;2023-07-16T12:34:53;7.28;;;2.67;;
61038;SDS011;46919;45.816;3.104;2023-07-16T12:37:20;3.85;;;2.13;;
61038;SDS011;46919;45.816;3.104;2023-07-16T12:39:45;4.40;;;2.35;;
61038;SDS011;46919;45.816;3.104;2023-07-16T12:42:10;4.43;;;2.30;;
61038;SDS011;46919;45.816;3.104;2023-07-16T12:44:36;6.10;;;2.40;;
61038;SDS011;46919;45.816;3.104;2023-07-16T12:47:01;4.13;;;2.00;;
61038;SDS011;46919;45.816;3.104;2023-07-16T12:49:27;3.90;;;2.42;;
61038;SDS011;46919;45.816;3.104;2023-07-16T12:51:52;4.95;;;2.17;;
61038;SDS011;46919;45.816;3.104;2023-07-16T12:54:18;5.88;;;2.38;;
61038;SDS011;46919;45.816;3.104;2023-07-16T12:56:43;4.20;;;2.13;;
61038;SDS011;46919;45.816;3.104;2023-07-16T12:59:08;5.07;;;2.10;;
61038;SDS011;46919;45.816;3.104;2023-07-16T13:01:34;3.90;;;2.60;;
61038;SDS011;46919;45.816;3.104;2023-07-16T13:03:59;5.13;;;2.58;;
61038;SDS011;46919;45.816;3.104;2023-07-16T13:06:25;5.47;;;2.50;;
61038;SDS011;46919;45.816;3.104;2023-07-16T13:08:50;4.32;;;2.28;;
61038;SDS011;46919;45.816;3.104;2023-07-16T13:11:15;3.05;;;2.25;;
61038;SDS011;46919;45.816;3.104;2023-07-16T13:13:41;5.47;;;2.30;;
61038;SDS011;46919;45.816;3.104;2023-07-16T13:16:08;3.95;;;2.28;;
61038;SDS011;46919;45.816;3.104;2023-07-16T13:18:34;5.15;;;2.40;;
61038;SDS011;46919;45.816;3.104;2023-07-16T13:20:59;3.20;;;2.03;;
61038;SDS011;46919;45.816;3.104;2023-07-16T13:23:25;4.85;;;2.33;;
61038;SDS011;46919;45.816;3.104;2023-07-16T13:25:50;5.22;;;2.28;;
61038;SDS011;46919;45.816;3.104;2023-07-16T13:28:17;5.65;;;2.28;;
61038;SDS011;46919;45.816;3.104;2023-07-16T13:30:43;6.00;;;2.38;;
61038;SDS011;46919;45.816;3.104;2023-07-16T13:33:08;4.38;;;2.38;;
61038;SDS011;46919;45.816;3.104;2023-07-16T13:35:34;3.55;;;2.17;;
61038;SDS011;46919;45.816;3.104;2023-07-16T13:37:59;5.85;;;2.33;;
61038;SDS011;46919;45.816;3.104;2023-07-16T13:40:26;2.45;;;2.03;;
61038;SDS011;46919;45.816;3.104;2023-07-16T13:42:51;5.40;;;2.38;;
61038;SDS011;46919;45.816;3.104;2023-07-16T13:45:18;5.47;;;2.10;;
61038;SDS011;46919;45.816;3.104;2023-07-16T13:47:44;3.63;;;2.33;;
61038;SDS011;46919;45.816;3.104;2023-07-16T13:50:10;5.47;;;1.98;;
61038;SDS011;46919;45.816;3.104;2023-07-16T13:52:35;5.32;;;2.50;;
61038;SDS011;46919;45.816;3.104;2023-07-16T13:55:01;3.47;;;2.28;;
61038;SDS011;46919;45.816;3.104;2023-07-16T13:57:26;4.38;;;2.25;;
61038;SDS011;46919;45.816;3.104;2023-07-16T13:59:52;4.72;;;2.40;;
61038;SDS011;46919;45.816;3.104;2023-07-16T14:02:17;5.78;;;2.47;;
61038;SDS011;46919;45.816;3.104;2023-07-16T14:04:43;8.02;;;2.47;;
61038;SDS011;46919;45.816;3.104;2023-07-16T14:07:09;5.47;;;2.10;;
61038;SDS011;46919;45.816;3.104;2023-07-16T14:09:34;4.55;;;2.15;;
61038;SDS011;46919;45.816;3.104;2023-07-16T14:12:00;3.47;;;1.92;;
61038;SDS011;46919;45.816;3.104;2023-07-16T14:14:25;5.55;;;2.20;;
61038;SDS011;46919;45.816;3.104;2023-07-16T14:16:54;4.95;;;2.20;;
61038;SDS011;46919;45.816;3.104;2023-07-16T14:19:20;4.28;;;2.55;;
61038;SDS011;46919;45.816;3.104;2023-07-16T14:21:46;4.18;;;2.42;;
61038;SDS011;46919;45.816;3.104;2023-07-16T14:24:11;4.32;;;2.35;;
61038;SDS011;46919;45.816;3.104;2023-07-16T14:26:37;4.63;;;2.20;;
61038;SDS011;46919;45.816;3.104;2023-07-16T14:29:03;3.95;;;2.33;;
61038;SDS011;46919;45.816;3.104;2023-07-16T14:31:29;8.40;;;2.40;;
61038;SDS011;46919;45.816;3.104;2023-07-16T14:33:54;4.47;;;2.30;;
61038;SDS011;46919;45.816;3.104;2023-07-16T14:36:19;4.05;;;2.40;;
61038;SDS011;46919;45.816;3.104;2023-07-16T14:38:46;4.82;;;2.38;;
61038;SDS011;46919;45.816;3.104;2023-07-16T14:41:12;4.38;;;2.42;;
61038;SDS011;46919;45.816;3.104;2023-07-16T14:43:37;4.15;;;2.20;;
61038;SDS011;46919;45.816;3.104;2023-07-16T14:46:03;5.35;;;2.13;;
61038;SDS011;46919;45.816;3.104;2023-07-16T14:48:28;3.67;;;2.28;;
61038;SDS011;46919;45.816;3.104;2023-07-16T14:50:54;3.30;;;2.38;;
61038;SDS011;46919;45.816;3.104;2023-07-16T14:53:19;4.18;;;2.38;;
61038;SDS011;46919;45.816;3.104;2023-07-16T14:55:48;4.43;;;2.65;;
61038;SDS011;46919;45.816;3.104;2023-07-16T14:58:15;4.45;;;2.58;;